Northern & Central Napa County

33 Stations

15 Minute Data | America/Los_Angeles
as of 9/1/26 11:39 AM PDT
Station Date Time Temp (°F) RH (%) Dew Pt (°F) Wind Spd (mph) Wind Dir (°) Wind Gust (mph) Latest Rain (In) Daily Rain (In) Daily Max Temp (°F) Daily Min Temp (°F)
Tenma (North Calistoga) 9/1/26 1130 70.5   4.7 - - - - - 0.00 0.00 71.5   5.4 53.9   1.2
Calistoga-Solari 9/1/26 1130 68.4   5.1 57   12 52.5   0.5 5.2   1.3 SW | 232 9.2   0.1 0.00 0.00 69.3   5.1 53.6   2.6
Calistoga-North 9/1/26 1130 69.2   3.0 61   7 55.0   0.2 - - - 0.00 0.00 71.2   4.1 56.0   0.9
Twomey Calistoga 9/1/26 1130 71.2   0.8 51   3 52.3   0.8 4.4   2.2 W | 267 9.4   2.6 0.00 0.00 71.8   0.2 52.1   4.8
Paloma 9/1/26 1130 72.5   3.2 53   6 54.4   0.1 4.2   2.5 ENE | 59 10.4   3.4 0.00 0.00 72.5   3.2 56.4   0.3
Calistoga (Ranch 78) 9/1/26 1130 68.8   1.7 53   5 51.2   1.0 5.6   3.1 WSW | 240 11.5   4.2 0.00 0.00 68.8   0.6 54.7   1.7
Diamond Mtn (Schramsberg) 9/1/26 1130 66.3   3.6 56   11 50.2   1.3 - - - 0.00 0.00 69.0   5.6 53.7   0.8
Diamond Mtn (McEachran) 9/1/26 1130 65.9   1.1 59   5 51.0   1.2 - - - - - 67.5   1.8 54.3   1.2
Deer Park 9/1/26 1130 68.0   5.1 53   14 50.1   1.6 4.3   1.7 SW | 233 10.0   1.9 0.00 0.00 68.1   4.6 55.8   1.3
St. Helena-North 9/1/26 1130 69.3   5.0 48   12 49.0   1.5 2.5   0.6 WSW | 241 8.6   0.9 0.00 0.00 71.5   6.1 54.4   2.5
St. Helena (NVV Office) 9/1/26 1130 69.1   4.8 - - 2.3   0.1 WSW | 237 8.6   3.6 0.00 0.00 69.8   4.2 57.2   0.1
Tiara Fria (East St. Helena) 9/1/26 1130 68.6   5.9 56   11 52.4   0.8 5.2   2.7 WSW | 257 11.6   3.9 0.00 0.00 69.8   5.9 55.6   1.6
Prisoner Winery 9/1/26 1130 67.2   1.4 58   2 51.8   0.2 3.1   1.5 SW | 219 9.7   5.2 0.00 0.00 68.3   1.7 53.2   2.8
Rutherford Hill Estate 9/1/26 1130 67.9   5.1 58   10 52.7   0.6 2.5   0.1 WNW | 303 9.4   2.2 0.00 0.00 69.1   4.8 57.1   1.5
Rutherford-North (Mee Ln) 9/1/26 1130 67.2   3.7 58   7 52.1   0.5 5.6   2.5 W | 262 12.7   5.7 0.00 0.00 70.9   6.6 53.1   0.9
Rutherford (STS) 9/1/26 1130 71.4   4.1 58   5 55.7   1.4 6.2   3.8 W | 273 12.1   6.4 0.00 0.00 71.4   3.8 55.8   1.1
Silver Oak OV 9/1/26 1130 67.8   5.8 56   12 51.8   0.2 4.9   0.1 WSW | 257 10.8   1.8 0.00 0.00 68.7   5.3 58.2   2.0
Oakville-NE (Ranch 88) 9/1/26 1130 68.2   3.7 52   8 49.9   0.4 4.6   0.1 NW | 310 11.1   1.2 0.00 0.00 69.5   4.0 57.5   0.7
Crossroads Ranch 9/1/26 1130 68.0   5.5 59   11 53.1   0.6 4.4   1.3 W | 264 9.9   0.3 0.00 0.00 68.1   5.4 58.5   2.1
Oakville 9/1/26 1130 67.7   4.9 56   10 51.4   0.1 5.3   1.2 WSW | 249 12.8   3.7 0.00 0.00 68.6   5.0 58.8   2.7
To Kalon Remote (TKKE) 9/1/26 1130 69.9   6.3 - - - - - - - 71.9   7.5 58.0   0.8
To Kalon 9/1/26 1130 67.9   4.9 57   12 51.9   0.5 5.6   1.1 W | 269 12.0   1.8 0.00 0.00 68.8   5.4 59.5   2.7
To Kalon Remote (TKN5) 9/1/26 1130 69.0   4.4 - - - - - - - 70.4   4.2 60.2   3.0
Jump Rock 9/1/26 1130 62.0   1.4 71   3 52.6   0.1 3.9   1.2 W | 265 8.5   1.7 0.00 0.00 63.5   1.9 54.1   10.3
State Lane Ranch 9/1/26 1130 69.7   7.8 60   15 55.1   1.2 4.2   0.8 W | 265 8.8   0.7 0.00 0.00 70.1   7.8 58.8   2.4
Yountville (Ranch 67) 9/1/26 1130 68.3   6.3 51   15 49.6   1.0 4.5   0.9 WNW | 294 12.6   2.7 0.00 0.00 68.3   6.3 58.2   3.2
Borreo (Soda Canyon) 9/1/26 1115 64.9   7.0 58   18 49.7   0.5 2.8   0.2 SW | 227 6.8   0.4 0.00 0.00 65.3   6.9 56.8   3.7
Wappo Hill Floor 9/1/26 1130 69.5   5.8 49   17 49.2   2.7 4.7   2.3 NW | 320 9.0   2.7 0.00 0.00 69.6   6.0 59.1   3.3
Wappo Hill 9/1/26 1130 68.8   6.4 50   17 49.5   1.8 6.2   1.5 W | 281 11.8   1.7 0.00 0.00 69.1   6.5 58.8   3.5
Stags Leap Dist (Chimney Rock) 9/1/26 1130 69.4   8.1 59   18 54.2   0.5 2.9   0.4 WNW | 284 7.8   2.1 0.00 0.00 70.1   8.3 59.3   3.4
Stags Leap Dist (Silverado Vineyards) 9/1/26 1130 68.5   8.0 52   18 50.2   0.3 1.4   2.9 WNW | 286 7.5   2.8 0.00 0.00 69.1   7.7 58.4   3.2
Yountville-SE (Ranch 85) 9/1/26 1130 69.0   7.4 53   19 50.9   1.5 3.2   0.4 NW | 310 7.5   1.3 0.00 0.00 69.4   6.9 59.1   3.7
Yountville-South (Ranch 87) 9/1/26 1130 68.8   6.7 53   17 50.8   1.1 3.9   0.3 WNW | 300 9.0   1.2 0.00 0.00 69.2   6.2 59.0   3.3
Max     72.5 71 55.7 6.2 - 12.8 0.00 0.00 72.5 60.2
Avg     68.5 56 51.7 4.2 - 10.0 0.00 - - -
Min     62.0 48 49.0 1.4 - 6.8 0.00 0.00 63.5 52.1